sensor_id;sensor_type;location;lat;lon;timestamp;P1;durP1;ratioP1;P2;durP2;ratioP2
2710;SDS011;20721;47.402;8.550;2023-09-08T00:00:27;12.67;;;12.67;;
2710;SDS011;20721;47.402;8.550;2023-09-08T00:02:27;13.41;;;13.41;;
2710;SDS011;20721;47.402;8.550;2023-09-08T00:04:29;12.24;;;12.24;;
2710;SDS011;20721;47.402;8.550;2023-09-08T00:06:27;13.08;;;13.08;;
2710;SDS011;20721;47.402;8.550;2023-09-08T00:08:27;12.24;;;12.24;;
2710;SDS011;20721;47.402;8.550;2023-09-08T00:10:27;13.25;;;13.25;;
2710;SDS011;20721;47.402;8.550;2023-09-08T00:12:27;12.86;;;12.86;;
2710;SDS011;20721;47.402;8.550;2023-09-08T00:14:27;13.04;;;13.04;;
2710;SDS011;20721;47.402;8.550;2023-09-08T00:16:27;12.56;;;12.56;;
2710;SDS011;20721;47.402;8.550;2023-09-08T00:18:27;12.83;;;12.83;;
2710;SDS011;20721;47.402;8.550;2023-09-08T00:20:27;12.86;;;12.86;;
2710;SDS011;20721;47.402;8.550;2023-09-08T00:22:27;12.48;;;12.48;;
2710;SDS011;20721;47.402;8.550;2023-09-08T00:24:28;12.83;;;12.83;;
2710;SDS011;20721;47.402;8.550;2023-09-08T00:26:27;14.09;;;14.09;;
2710;SDS011;20721;47.402;8.550;2023-09-08T00:28:27;13.13;;;13.13;;
2710;SDS011;20721;47.402;8.550;2023-09-08T00:30:27;13.03;;;13.03;;
2710;SDS011;20721;47.402;8.550;2023-09-08T00:32:27;13.44;;;13.44;;
2710;SDS011;20721;47.402;8.550;2023-09-08T00:34:27;13.09;;;13.09;;
2710;SDS011;20721;47.402;8.550;2023-09-08T00:36:29;12.44;;;12.44;;
2710;SDS011;20721;47.402;8.550;2023-09-08T00:38:27;12.94;;;12.94;;
2710;SDS011;20721;47.402;8.550;2023-09-08T00:40:27;12.62;;;12.62;;
2710;SDS011;20721;47.402;8.550;2023-09-08T00:42:27;12.92;;;12.92;;
2710;SDS011;20721;47.402;8.550;2023-09-08T00:44:27;12.92;;;12.92;;
2710;SDS011;20721;47.402;8.550;2023-09-08T00:46:27;13.14;;;13.14;;
2710;SDS011;20721;47.402;8.550;2023-09-08T00:48:28;13.38;;;13.38;;
2710;SDS011;20721;47.402;8.550;2023-09-08T00:50:27;13.93;;;13.93;;
2710;SDS011;20721;47.402;8.550;2023-09-08T00:52:27;13.63;;;13.63;;
2710;SDS011;20721;47.402;8.550;2023-09-08T00:54:27;13.67;;;13.67;;
2710;SDS011;20721;47.402;8.550;2023-09-08T00:56:27;14.49;;;14.49;;
2710;SDS011;20721;47.402;8.550;2023-09-08T00:58:27;13.70;;;13.70;;
2710;SDS011;20721;47.402;8.550;2023-09-08T01:00:27;13.92;;;13.92;;
2710;SDS011;20721;47.402;8.550;2023-09-08T01:02:27;12.96;;;12.96;;
2710;SDS011;20721;47.402;8.550;2023-09-08T01:04:28;14.65;;;14.54;;
2710;SDS011;20721;47.402;8.550;2023-09-08T01:06:27;13.77;;;13.77;;
2710;SDS011;20721;47.402;8.550;2023-09-08T01:08:27;14.81;;;14.81;;
2710;SDS011;20721;47.402;8.550;2023-09-08T01:10:27;14.66;;;14.66;;
2710;SDS011;20721;47.402;8.550;2023-09-08T01:12:28;14.35;;;14.35;;
2710;SDS011;20721;47.402;8.550;2023-09-08T01:14:28;15.02;;;15.02;;
2710;SDS011;20721;47.402;8.550;2023-09-08T01:16:27;13.54;;;13.54;;
2710;SDS011;20721;47.402;8.550;2023-09-08T01:18:27;13.49;;;13.49;;
2710;SDS011;20721;47.402;8.550;2023-09-08T01:20:30;13.93;;;13.93;;
2710;SDS011;20721;47.402;8.550;2023-09-08T01:22:40;13.28;;;13.28;;
2710;SDS011;20721;47.402;8.550;2023-09-08T01:27:28;14.11;;;14.11;;
2710;SDS011;20721;47.402;8.550;2023-09-08T01:30:28;14.05;;;14.05;;
2710;SDS011;20721;47.402;8.550;2023-09-08T01:32:28;13.51;;;13.51;;
2710;SDS011;20721;47.402;8.550;2023-09-08T01:34:28;13.65;;;13.65;;
2710;SDS011;20721;47.402;8.550;2023-09-08T01:36:27;13.07;;;13.06;;
2710;SDS011;20721;47.402;8.550;2023-09-08T01:38:27;13.83;;;13.83;;
2710;SDS011;20721;47.402;8.550;2023-09-08T01:40:28;13.58;;;13.58;;
2710;SDS011;20721;47.402;8.550;2023-09-08T01:42:27;13.81;;;13.81;;
2710;SDS011;20721;47.402;8.550;2023-09-08T01:44:27;13.12;;;13.12;;
2710;SDS011;20721;47.402;8.550;2023-09-08T01:46:27;13.27;;;13.27;;
2710;SDS011;20721;47.402;8.550;2023-09-08T01:48:27;13.60;;;13.60;;
2710;SDS011;20721;47.402;8.550;2023-09-08T01:51:27;13.57;;;13.57;;
2710;SDS011;20721;47.402;8.550;2023-09-08T01:53:27;13.49;;;13.49;;
2710;SDS011;20721;47.402;8.550;2023-09-08T01:55:27;13.94;;;13.94;;
2710;SDS011;20721;47.402;8.550;2023-09-08T01:57:27;14.00;;;14.00;;
2710;SDS011;20721;47.402;8.550;2023-09-08T01:59:27;14.04;;;14.04;;
2710;SDS011;20721;47.402;8.550;2023-09-08T02:01:27;14.30;;;14.30;;
2710;SDS011;20721;47.402;8.550;2023-09-08T02:03:27;13.11;;;13.11;;
2710;SDS011;20721;47.402;8.550;2023-09-08T02:06:27;13.71;;;13.71;;
2710;SDS011;20721;47.402;8.550;2023-09-08T02:08:27;14.07;;;14.07;;
2710;SDS011;20721;47.402;8.550;2023-09-08T02:10:27;14.30;;;14.30;;
2710;SDS011;20721;47.402;8.550;2023-09-08T02:12:27;14.98;;;14.98;;
2710;SDS011;20721;47.402;8.550;2023-09-08T02:14:27;13.57;;;13.57;;
2710;SDS011;20721;47.402;8.550;2023-09-08T02:16:27;13.55;;;13.55;;
2710;SDS011;20721;47.402;8.550;2023-09-08T02:18:27;13.47;;;13.47;;
2710;SDS011;20721;47.402;8.550;2023-09-08T02:20:27;12.77;;;12.77;;
2710;SDS011;20721;47.402;8.550;2023-09-08T02:22:28;14.19;;;14.19;;
2710;SDS011;20721;47.402;8.550;2023-09-08T02:24:27;13.88;;;13.88;;
2710;SDS011;20721;47.402;8.550;2023-09-08T02:26:27;13.13;;;13.13;;
2710;SDS011;20721;47.402;8.550;2023-09-08T02:28:27;14.04;;;14.04;;
2710;SDS011;20721;47.402;8.550;2023-09-08T02:30:27;13.77;;;13.77;;
2710;SDS011;20721;47.402;8.550;2023-09-08T02:32:27;13.44;;;13.44;;
2710;SDS011;20721;47.402;8.550;2023-09-08T02:34:27;14.06;;;14.06;;
2710;SDS011;20721;47.402;8.550;2023-09-08T02:37:29;13.87;;;13.87;;
2710;SDS011;20721;47.402;8.550;2023-09-08T02:39:27;14.38;;;14.38;;
2710;SDS011;20721;47.402;8.550;2023-09-08T02:41:27;13.42;;;13.42;;
2710;SDS011;20721;47.402;8.550;2023-09-08T02:43:27;13.43;;;13.43;;
2710;SDS011;20721;47.402;8.550;2023-09-08T02:45:27;13.47;;;13.47;;
2710;SDS011;20721;47.402;8.550;2023-09-08T02:47:27;13.63;;;13.63;;
2710;SDS011;20721;47.402;8.550;2023-09-08T02:49:27;13.94;;;13.94;;
2710;SDS011;20721;47.402;8.550;2023-09-08T02:52:29;13.95;;;13.95;;
2710;SDS011;20721;47.402;8.550;2023-09-08T02:54:27;14.49;;;14.49;;
2710;SDS011;20721;47.402;8.550;2023-09-08T02:58:27;13.63;;;13.63;;
2710;SDS011;20721;47.402;8.550;2023-09-08T03:00:27;13.85;;;13.85;;
2710;SDS011;20721;47.402;8.550;2023-09-08T03:02:28;14.49;;;14.49;;
2710;SDS011;20721;47.402;8.550;2023-09-08T03:04:27;13.62;;;13.62;;
2710;SDS011;20721;47.402;8.550;2023-09-08T03:07:27;13.51;;;13.51;;
2710;SDS011;20721;47.402;8.550;2023-09-08T03:10:27;13.57;;;13.57;;
2710;SDS011;20721;47.402;8.550;2023-09-08T03:12:27;12.62;;;12.62;;
2710;SDS011;20721;47.402;8.550;2023-09-08T03:14:27;13.71;;;13.71;;
2710;SDS011;20721;47.402;8.550;2023-09-08T03:16:27;14.19;;;14.19;;
2710;SDS011;20721;47.402;8.550;2023-09-08T03:18:27;13.33;;;13.33;;
2710;SDS011;20721;47.402;8.550;2023-09-08T03:20:27;14.69;;;14.69;;
2710;SDS011;20721;47.402;8.550;2023-09-08T03:22:27;14.38;;;14.38;;
2710;SDS011;20721;47.402;8.550;2023-09-08T03:24:27;14.04;;;14.04;;
2710;SDS011;20721;47.402;8.550;2023-09-08T03:27:28;13.04;;;13.04;;
2710;SDS011;20721;47.402;8.550;2023-09-08T03:29:27;13.56;;;13.56;;
2710;SDS011;20721;47.402;8.550;2023-09-08T03:31:28;14.09;;;14.09;;
2710;SDS011;20721;47.402;8.550;2023-09-08T03:33:28;14.49;;;14.49;;
2710;SDS011;20721;47.402;8.550;2023-09-08T03:35:27;13.19;;;13.19;;
2710;SDS011;20721;47.402;8.550;2023-09-08T03:37:27;13.66;;;13.66;;
2710;SDS011;20721;47.402;8.550;2023-09-08T03:41:27;13.48;;;13.48;;
2710;SDS011;20721;47.402;8.550;2023-09-08T03:43:27;14.93;;;14.93;;
2710;SDS011;20721;47.402;8.550;2023-09-08T03:47:27;15.83;;;15.83;;
2710;SDS011;20721;47.402;8.550;2023-09-08T03:49:28;14.66;;;14.62;;
2710;SDS011;20721;47.402;8.550;2023-09-08T03:51:27;15.18;;;15.18;;
2710;SDS011;20721;47.402;8.550;2023-09-08T03:54:27;15.16;;;15.16;;
2710;SDS011;20721;47.402;8.550;2023-09-08T03:57:28;14.33;;;14.33;;
2710;SDS011;20721;47.402;8.550;2023-09-08T03:59:27;14.97;;;14.97;;
2710;SDS011;20721;47.402;8.550;2023-09-08T04:01:27;15.96;;;15.96;;
2710;SDS011;20721;47.402;8.550;2023-09-08T04:04:30;14.16;;;14.16;;
2710;SDS011;20721;47.402;8.550;2023-09-08T04:08:28;14.34;;;14.34;;
2710;SDS011;20721;47.402;8.550;2023-09-08T04:10:27;15.55;;;15.55;;
2710;SDS011;20721;47.402;8.550;2023-09-08T04:13:28;15.18;;;15.18;;
2710;SDS011;20721;47.402;8.550;2023-09-08T04:15:27;15.69;;;15.69;;
2710;SDS011;20721;47.402;8.550;2023-09-08T04:17:28;15.28;;;15.28;;
2710;SDS011;20721;47.402;8.550;2023-09-08T04:20:28;15.14;;;15.14;;
2710;SDS011;20721;47.402;8.550;2023-09-08T04:22:27;15.12;;;15.12;;
2710;SDS011;20721;47.402;8.550;2023-09-08T04:25:27;16.54;;;16.54;;
2710;SDS011;20721;47.402;8.550;2023-09-08T04:27:27;16.55;;;16.54;;
2710;SDS011;20721;47.402;8.550;2023-09-08T04:29:28;15.87;;;15.87;;
2710;SDS011;20721;47.402;8.550;2023-09-08T04:33:28;15.95;;;15.95;;
2710;SDS011;20721;47.402;8.550;2023-09-08T04:36:28;18.17;;;18.17;;
2710;SDS011;20721;47.402;8.550;2023-09-08T04:39:28;15.31;;;15.31;;
2710;SDS011;20721;47.402;8.550;2023-09-08T04:41:28;16.21;;;16.21;;
2710;SDS011;20721;47.402;8.550;2023-09-08T04:43:28;16.00;;;16.00;;
2710;SDS011;20721;47.402;8.550;2023-09-08T04:45:28;15.88;;;15.88;;
2710;SDS011;20721;47.402;8.550;2023-09-08T04:47:28;15.76;;;15.76;;
2710;SDS011;20721;47.402;8.550;2023-09-08T04:49:28;15.25;;;15.25;;
2710;SDS011;20721;47.402;8.550;2023-09-08T04:51:28;16.35;;;16.34;;
2710;SDS011;20721;47.402;8.550;2023-09-08T04:55:29;17.43;;;17.43;;
2710;SDS011;20721;47.402;8.550;2023-09-08T04:57:34;17.07;;;17.07;;
2710;SDS011;20721;47.402;8.550;2023-09-08T04:59:28;16.53;;;16.53;;
2710;SDS011;20721;47.402;8.550;2023-09-08T05:03:28;16.46;;;16.46;;
2710;SDS011;20721;47.402;8.550;2023-09-08T05:05:28;16.17;;;16.17;;
2710;SDS011;20721;47.402;8.550;2023-09-08T05:07:29;15.74;;;15.74;;
2710;SDS011;20721;47.402;8.550;2023-09-08T05:09:28;16.05;;;16.04;;
2710;SDS011;20721;47.402;8.550;2023-09-08T05:11:29;16.32;;;16.32;;
2710;SDS011;20721;47.402;8.550;2023-09-08T05:13:38;15.10;;;15.10;;
2710;SDS011;20721;47.402;8.550;2023-09-08T05:15:30;15.18;;;15.18;;
2710;SDS011;20721;47.402;8.550;2023-09-08T05:17:28;15.51;;;15.51;;
2710;SDS011;20721;47.402;8.550;2023-09-08T05:19:28;17.65;;;17.65;;
2710;SDS011;20721;47.402;8.550;2023-09-08T05:21:28;15.84;;;15.84;;
2710;SDS011;20721;47.402;8.550;2023-09-08T05:23:28;15.37;;;15.37;;
2710;SDS011;20721;47.402;8.550;2023-09-08T05:25:28;16.79;;;16.79;;
2710;SDS011;20721;47.402;8.550;2023-09-08T05:27:28;17.23;;;17.23;;
2710;SDS011;20721;47.402;8.550;2023-09-08T05:29:28;16.36;;;16.36;;
2710;SDS011;20721;47.402;8.550;2023-09-08T05:31:28;16.03;;;16.03;;
2710;SDS011;20721;47.402;8.550;2023-09-08T05:33:28;16.62;;;16.62;;
2710;SDS011;20721;47.402;8.550;2023-09-08T05:36:28;16.14;;;16.14;;
2710;SDS011;20721;47.402;8.550;2023-09-08T05:38:28;16.29;;;16.29;;
2710;SDS011;20721;47.402;8.550;2023-09-08T05:40:30;17.24;;;17.24;;
2710;SDS011;20721;47.402;8.550;2023-09-08T05:42:28;16.00;;;16.00;;
2710;SDS011;20721;47.402;8.550;2023-09-08T05:44:28;15.21;;;15.21;;
2710;SDS011;20721;47.402;8.550;2023-09-08T05:46:28;17.01;;;17.01;;
2710;SDS011;20721;47.402;8.550;2023-09-08T05:48:28;18.90;;;18.89;;
2710;SDS011;20721;47.402;8.550;2023-09-08T05:50:28;16.78;;;16.78;;
2710;SDS011;20721;47.402;8.550;2023-09-08T05:52:28;16.74;;;16.74;;
2710;SDS011;20721;47.402;8.550;2023-09-08T05:54:28;16.82;;;16.82;;
2710;SDS011;20721;47.402;8.550;2023-09-08T05:56:29;16.62;;;16.62;;
2710;SDS011;20721;47.402;8.550;2023-09-08T05:58:28;17.31;;;17.31;;
2710;SDS011;20721;47.402;8.550;2023-09-08T06:00:28;16.38;;;16.38;;
2710;SDS011;20721;47.402;8.550;2023-09-08T06:02:28;16.11;;;16.11;;
2710;SDS011;20721;47.402;8.550;2023-09-08T06:04:28;15.74;;;15.74;;
2710;SDS011;20721;47.402;8.550;2023-09-08T06:06:28;16.76;;;16.76;;
2710;SDS011;20721;47.402;8.550;2023-09-08T06:08:28;15.73;;;15.72;;
2710;SDS011;20721;47.402;8.550;2023-09-08T06:10:28;16.06;;;16.06;;
2710;SDS011;20721;47.402;8.550;2023-09-08T06:12:28;16.86;;;16.86;;
2710;SDS011;20721;47.402;8.550;2023-09-08T06:14:28;18.76;;;18.76;;
2710;SDS011;20721;47.402;8.550;2023-09-08T06:16:28;16.61;;;16.61;;
2710;SDS011;20721;47.402;8.550;2023-09-08T06:18:28;15.75;;;15.75;;
2710;SDS011;20721;47.402;8.550;2023-09-08T06:20:28;16.39;;;16.39;;
2710;SDS011;20721;47.402;8.550;2023-09-08T06:22:28;15.52;;;15.52;;
2710;SDS011;20721;47.402;8.550;2023-09-08T06:24:28;16.45;;;16.45;;
2710;SDS011;20721;47.402;8.550;2023-09-08T06:26:28;16.85;;;16.85;;
2710;SDS011;20721;47.402;8.550;2023-09-08T06:28:28;17.11;;;17.11;;
2710;SDS011;20721;47.402;8.550;2023-09-08T06:30:28;16.64;;;16.64;;
2710;SDS011;20721;47.402;8.550;2023-09-08T06:32:28;16.44;;;16.44;;
2710;SDS011;20721;47.402;8.550;2023-09-08T06:34:31;16.35;;;16.35;;
2710;SDS011;20721;47.402;8.550;2023-09-08T06:36:28;16.62;;;16.62;;
2710;SDS011;20721;47.402;8.550;2023-09-08T06:38:28;16.42;;;16.42;;
2710;SDS011;20721;47.402;8.550;2023-09-08T06:40:29;15.83;;;15.83;;
2710;SDS011;20721;47.402;8.550;2023-09-08T06:42:28;15.26;;;15.26;;
2710;SDS011;20721;47.402;8.550;2023-09-08T06:44:29;15.89;;;15.89;;
2710;SDS011;20721;47.402;8.550;2023-09-08T06:46:28;15.36;;;15.36;;
2710;SDS011;20721;47.402;8.550;2023-09-08T06:48:28;16.76;;;16.76;;
2710;SDS011;20721;47.402;8.550;2023-09-08T06:50:28;16.10;;;16.10;;
2710;SDS011;20721;47.402;8.550;2023-09-08T06:52:28;15.35;;;15.35;;
2710;SDS011;20721;47.402;8.550;2023-09-08T06:54:28;17.14;;;17.14;;
2710;SDS011;20721;47.402;8.550;2023-09-08T06:56:28;16.45;;;16.45;;
2710;SDS011;20721;47.402;8.550;2023-09-08T06:58:28;15.81;;;15.81;;
2710;SDS011;20721;47.402;8.550;2023-09-08T07:00:28;15.76;;;15.76;;
2710;SDS011;20721;47.402;8.550;2023-09-08T07:02:28;16.82;;;16.82;;
2710;SDS011;20721;47.402;8.550;2023-09-08T07:04:28;15.19;;;15.19;;
2710;SDS011;20721;47.402;8.550;2023-09-08T07:06:28;15.55;;;15.55;;
2710;SDS011;20721;47.402;8.550;2023-09-08T07:08:28;14.54;;;14.54;;
2710;SDS011;20721;47.402;8.550;2023-09-08T07:10:28;14.65;;;14.65;;
2710;SDS011;20721;47.402;8.550;2023-09-08T07:12:28;14.56;;;14.56;;
2710;SDS011;20721;47.402;8.550;2023-09-08T07:14:28;15.35;;;15.35;;
2710;SDS011;20721;47.402;8.550;2023-09-08T07:16:28;14.52;;;14.52;;
2710;SDS011;20721;47.402;8.550;2023-09-08T07:18:28;15.17;;;15.17;;
2710;SDS011;20721;47.402;8.550;2023-09-08T07:20:28;14.29;;;14.29;;
2710;SDS011;20721;47.402;8.550;2023-09-08T07:22:28;15.49;;;15.49;;
2710;SDS011;20721;47.402;8.550;2023-09-08T07:24:28;14.71;;;14.71;;
2710;SDS011;20721;47.402;8.550;2023-09-08T07:26:28;15.64;;;15.64;;
2710;SDS011;20721;47.402;8.550;2023-09-08T07:28:28;13.96;;;13.96;;
2710;SDS011;20721;47.402;8.550;2023-09-08T07:30:28;14.41;;;14.41;;
2710;SDS011;20721;47.402;8.550;2023-09-08T07:32:28;14.76;;;14.76;;
2710;SDS011;20721;47.402;8.550;2023-09-08T07:34:28;14.49;;;14.49;;
2710;SDS011;20721;47.402;8.550;2023-09-08T07:36:28;15.50;;;15.50;;
2710;SDS011;20721;47.402;8.550;2023-09-08T07:38:28;14.69;;;14.69;;
2710;SDS011;20721;47.402;8.550;2023-09-08T07:40:28;14.55;;;14.55;;
2710;SDS011;20721;47.402;8.550;2023-09-08T07:42:28;15.27;;;15.27;;
2710;SDS011;20721;47.402;8.550;2023-09-08T07:44:28;15.66;;;15.66;;
2710;SDS011;20721;47.402;8.550;2023-09-08T07:46:28;16.18;;;16.18;;
2710;SDS011;20721;47.402;8.550;2023-09-08T07:48:28;15.53;;;15.53;;
2710;SDS011;20721;47.402;8.550;2023-09-08T07:50:32;13.89;;;13.89;;
2710;SDS011;20721;47.402;8.550;2023-09-08T07:52:28;14.72;;;14.72;;
2710;SDS011;20721;47.402;8.550;2023-09-08T07:54:31;13.66;;;13.66;;
2710;SDS011;20721;47.402;8.550;2023-09-08T07:56:28;12.89;;;12.89;;
2710;SDS011;20721;47.402;8.550;2023-09-08T07:58:28;14.29;;;14.29;;
2710;SDS011;20721;47.402;8.550;2023-09-08T08:00:29;13.70;;;13.70;;
2710;SDS011;20721;47.402;8.550;2023-09-08T08:02:28;13.49;;;13.49;;
2710;SDS011;20721;47.402;8.550;2023-09-08T08:04:28;12.58;;;12.58;;
2710;SDS011;20721;47.402;8.550;2023-09-08T08:06:28;13.23;;;13.23;;
2710;SDS011;20721;47.402;8.550;2023-09-08T08:08:28;13.96;;;13.96;;
2710;SDS011;20721;47.402;8.550;2023-09-08T08:10:29;13.58;;;13.58;;
2710;SDS011;20721;47.402;8.550;2023-09-08T08:13:28;13.47;;;13.47;;
2710;SDS011;20721;47.402;8.550;2023-09-08T08:15:37;12.92;;;12.92;;
2710;SDS011;20721;47.402;8.550;2023-09-08T08:17:29;13.38;;;13.38;;
2710;SDS011;20721;47.402;8.550;2023-09-08T08:19:28;13.49;;;13.49;;
2710;SDS011;20721;47.402;8.550;2023-09-08T08:21:28;14.17;;;14.17;;
2710;SDS011;20721;47.402;8.550;2023-09-08T08:23:28;13.81;;;13.81;;
2710;SDS011;20721;47.402;8.550;2023-09-08T08:25:28;12.75;;;12.75;;
2710;SDS011;20721;47.402;8.550;2023-09-08T08:27:28;13.26;;;13.26;;
2710;SDS011;20721;47.402;8.550;2023-09-08T08:29:29;15.23;;;15.23;;
2710;SDS011;20721;47.402;8.550;2023-09-08T08:31:28;13.89;;;13.89;;
2710;SDS011;20721;47.402;8.550;2023-09-08T08:33:30;13.03;;;13.03;;
2710;SDS011;20721;47.402;8.550;2023-09-08T08:35:30;13.46;;;13.46;;
2710;SDS011;20721;47.402;8.550;2023-09-08T08:37:28;13.08;;;13.08;;
2710;SDS011;20721;47.402;8.550;2023-09-08T08:40:28;13.08;;;13.08;;
2710;SDS011;20721;47.402;8.550;2023-09-08T08:42:32;14.40;;;14.40;;
2710;SDS011;20721;47.402;8.550;2023-09-08T08:44:29;13.39;;;13.39;;
2710;SDS011;20721;47.402;8.550;2023-09-08T08:46:31;13.43;;;13.43;;
2710;SDS011;20721;47.402;8.550;2023-09-08T08:48:29;13.10;;;13.10;;
2710;SDS011;20721;47.402;8.550;2023-09-08T08:50:29;15.76;;;15.76;;
2710;SDS011;20721;47.402;8.550;2023-09-08T08:52:29;14.21;;;14.21;;
2710;SDS011;20721;47.402;8.550;2023-09-08T08:54:29;13.24;;;13.24;;
2710;SDS011;20721;47.402;8.550;2023-09-08T08:56:29;12.97;;;12.97;;
2710;SDS011;20721;47.402;8.550;2023-09-08T08:58:31;14.19;;;14.19;;
2710;SDS011;20721;47.402;8.550;2023-09-08T09:00:28;13.44;;;13.44;;
2710;SDS011;20721;47.402;8.550;2023-09-08T09:02:28;12.97;;;12.97;;
2710;SDS011;20721;47.402;8.550;2023-09-08T09:04:29;12.79;;;12.79;;
2710;SDS011;20721;47.402;8.550;2023-09-08T09:06:28;13.33;;;13.33;;
2710;SDS011;20721;47.402;8.550;2023-09-08T09:08:29;13.21;;;13.21;;
2710;SDS011;20721;47.402;8.550;2023-09-08T09:10:30;12.84;;;12.84;;
2710;SDS011;20721;47.402;8.550;2023-09-08T09:12:29;13.32;;;13.32;;
2710;SDS011;20721;47.402;8.550;2023-09-08T09:14:32;12.19;;;12.19;;
2710;SDS011;20721;47.402;8.550;2023-09-08T09:16:28;12.58;;;12.58;;
2710;SDS011;20721;47.402;8.550;2023-09-08T09:18:29;12.41;;;12.41;;
2710;SDS011;20721;47.402;8.550;2023-09-08T09:20:30;11.81;;;11.81;;
2710;SDS011;20721;47.402;8.550;2023-09-08T09:22:36;13.33;;;13.33;;
2710;SDS011;20721;47.402;8.550;2023-09-08T09:25:02;12.77;;;12.77;;
2710;SDS011;20721;47.402;8.550;2023-09-08T09:26:36;13.20;;;13.20;;
2710;SDS011;20721;47.402;8.550;2023-09-08T09:28:29;13.31;;;13.31;;
2710;SDS011;20721;47.402;8.550;2023-09-08T09:33:29;13.16;;;13.16;;
2710;SDS011;20721;47.402;8.550;2023-09-08T09:38:29;12.94;;;12.94;;
2710;SDS011;20721;47.402;8.550;2023-09-08T09:40:28;12.19;;;12.19;;
2710;SDS011;20721;47.402;8.550;2023-09-08T09:43:30;14.09;;;14.09;;
2710;SDS011;20721;47.402;8.550;2023-09-08T09:45:28;13.73;;;13.73;;
2710;SDS011;20721;47.402;8.550;2023-09-08T09:48:29;13.42;;;13.42;;
2710;SDS011;20721;47.402;8.550;2023-09-08T09:50:59;12.28;;;12.28;;
2710;SDS011;20721;47.402;8.550;2023-09-08T09:52:31;12.95;;;12.95;;
2710;SDS011;20721;47.402;8.550;2023-09-08T09:54:29;13.32;;;13.32;;
2710;SDS011;20721;47.402;8.550;2023-09-08T09:56:29;14.10;;;14.10;;
2710;SDS011;20721;47.402;8.550;2023-09-08T09:58:30;12.69;;;12.69;;
2710;SDS011;20721;47.402;8.550;2023-09-08T10:00:29;13.05;;;13.05;;
2710;SDS011;20721;47.402;8.550;2023-09-08T10:02:30;13.82;;;13.82;;
2710;SDS011;20721;47.402;8.550;2023-09-08T10:04:29;12.47;;;12.47;;
2710;SDS011;20721;47.402;8.550;2023-09-08T10:06:30;12.87;;;12.87;;
2710;SDS011;20721;47.402;8.550;2023-09-08T10:08:28;15.05;;;15.05;;
2710;SDS011;20721;47.402;8.550;2023-09-08T10:10:30;13.06;;;13.06;;
2710;SDS011;20721;47.402;8.550;2023-09-08T10:12:29;14.18;;;14.18;;
2710;SDS011;20721;47.402;8.550;2023-09-08T10:14:28;14.40;;;14.40;;
2710;SDS011;20721;47.402;8.550;2023-09-08T10:16:30;14.79;;;14.79;;
2710;SDS011;20721;47.402;8.550;2023-09-08T10:18:30;14.34;;;14.34;;
2710;SDS011;20721;47.402;8.550;2023-09-08T10:20:29;14.40;;;14.40;;
2710;SDS011;20721;47.402;8.550;2023-09-08T10:22:30;13.79;;;13.79;;
2710;SDS011;20721;47.402;8.550;2023-09-08T10:24:43;13.93;;;13.93;;
2710;SDS011;20721;47.402;8.550;2023-09-08T10:26:31;15.08;;;15.08;;
2710;SDS011;20721;47.402;8.550;2023-09-08T10:28:28;14.72;;;14.72;;
2710;SDS011;20721;47.402;8.550;2023-09-08T10:30:32;14.84;;;14.84;;
2710;SDS011;20721;47.402;8.550;2023-09-08T10:32:30;15.15;;;15.15;;
2710;SDS011;20721;47.402;8.550;2023-09-08T10:34:29;15.52;;;15.52;;
2710;SDS011;20721;47.402;8.550;2023-09-08T10:36:29;15.22;;;15.22;;
2710;SDS011;20721;47.402;8.550;2023-09-08T10:38:44;14.51;;;14.51;;
2710;SDS011;20721;47.402;8.550;2023-09-08T10:40:29;13.55;;;13.55;;
2710;SDS011;20721;47.402;8.550;2023-09-08T10:42:31;14.28;;;14.28;;
2710;SDS011;20721;47.402;8.550;2023-09-08T10:44:31;13.25;;;13.25;;
2710;SDS011;20721;47.402;8.550;2023-09-08T10:46:33;15.20;;;15.20;;
2710;SDS011;20721;47.402;8.550;2023-09-08T10:48:29;14.45;;;14.45;;
2710;SDS011;20721;47.402;8.550;2023-09-08T10:50:30;12.27;;;12.27;;
2710;SDS011;20721;47.402;8.550;2023-09-08T10:52:31;11.89;;;11.89;;
2710;SDS011;20721;47.402;8.550;2023-09-08T10:54:59;12.12;;;12.12;;
2710;SDS011;20721;47.402;8.550;2023-09-08T10:56:46;12.70;;;12.70;;
2710;SDS011;20721;47.402;8.550;2023-09-08T10:58:42;11.99;;;11.99;;
2710;SDS011;20721;47.402;8.550;2023-09-08T11:00:37;11.45;;;11.45;;
2710;SDS011;20721;47.402;8.550;2023-09-08T11:02:59;10.81;;;10.81;;
2710;SDS011;20721;47.402;8.550;2023-09-08T11:04:29;13.02;;;13.02;;
2710;SDS011;20721;47.402;8.550;2023-09-08T11:06:30;11.12;;;11.12;;
2710;SDS011;20721;47.402;8.550;2023-09-08T11:08:29;12.11;;;12.11;;
2710;SDS011;20721;47.402;8.550;2023-09-08T11:10:29;11.73;;;11.73;;
2710;SDS011;20721;47.402;8.550;2023-09-08T11:12:29;10.65;;;10.65;;
2710;SDS011;20721;47.402;8.550;2023-09-08T11:14:29;10.74;;;10.74;;
2710;SDS011;20721;47.402;8.550;2023-09-08T11:16:34;11.84;;;11.84;;
2710;SDS011;20721;47.402;8.550;2023-09-08T11:18:37;10.58;;;10.58;;
2710;SDS011;20721;47.402;8.550;2023-09-08T11:20:36;12.02;;;12.02;;
2710;SDS011;20721;47.402;8.550;2023-09-08T11:22:31;11.77;;;11.77;;
2710;SDS011;20721;47.402;8.550;2023-09-08T11:24:29;9.95;;;9.95;;
2710;SDS011;20721;47.402;8.550;2023-09-08T11:26:29;11.05;;;11.05;;
2710;SDS011;20721;47.402;8.550;2023-09-08T11:28:33;12.80;;;12.80;;
2710;SDS011;20721;47.402;8.550;2023-09-08T11:30:29;10.63;;;10.63;;
2710;SDS011;20721;47.402;8.550;2023-09-08T11:32:32;10.46;;;10.46;;
2710;SDS011;20721;47.402;8.550;2023-09-08T11:34:30;10.60;;;10.60;;
2710;SDS011;20721;47.402;8.550;2023-09-08T11:36:29;8.89;;;8.89;;
2710;SDS011;20721;47.402;8.550;2023-09-08T11:38:34;10.38;;;10.38;;
2710;SDS011;20721;47.402;8.550;2023-09-08T11:40:33;10.36;;;10.36;;
2710;SDS011;20721;47.402;8.550;2023-09-08T11:42:31;10.12;;;10.12;;
2710;SDS011;20721;47.402;8.550;2023-09-08T11:44:30;9.97;;;9.97;;
2710;SDS011;20721;47.402;8.550;2023-09-08T11:46:31;10.16;;;10.16;;
2710;SDS011;20721;47.402;8.550;2023-09-08T11:48:29;9.83;;;9.83;;
2710;SDS011;20721;47.402;8.550;2023-09-08T11:50:29;9.10;;;9.10;;
2710;SDS011;20721;47.402;8.550;2023-09-08T11:52:32;9.10;;;9.10;;
2710;SDS011;20721;47.402;8.550;2023-09-08T11:54:29;9.56;;;9.56;;
2710;SDS011;20721;47.402;8.550;2023-09-08T11:56:29;10.23;;;10.23;;
2710;SDS011;20721;47.402;8.550;2023-09-08T11:58:29;8.56;;;8.56;;
2710;SDS011;20721;47.402;8.550;2023-09-08T12:00:31;9.30;;;9.30;;
2710;SDS011;20721;47.402;8.550;2023-09-08T12:02:29;10.23;;;10.23;;
2710;SDS011;20721;47.402;8.550;2023-09-08T12:04:30;9.63;;;9.63;;
2710;SDS011;20721;47.402;8.550;2023-09-08T12:06:29;10.50;;;10.50;;
2710;SDS011;20721;47.402;8.550;2023-09-08T12:08:29;10.64;;;10.64;;
2710;SDS011;20721;47.402;8.550;2023-09-08T12:10:29;10.95;;;10.95;;
2710;SDS011;20721;47.402;8.550;2023-09-08T12:12:29;10.37;;;10.37;;
2710;SDS011;20721;47.402;8.550;2023-09-08T12:14:29;10.51;;;10.51;;
2710;SDS011;20721;47.402;8.550;2023-09-08T12:16:29;10.10;;;10.10;;
2710;SDS011;20721;47.402;8.550;2023-09-08T12:18:37;10.66;;;10.66;;
2710;SDS011;20721;47.402;8.550;2023-09-08T12:20:29;9.70;;;9.70;;
2710;SDS011;20721;47.402;8.550;2023-09-08T12:22:32;10.56;;;10.56;;
2710;SDS011;20721;47.402;8.550;2023-09-08T12:26:29;10.20;;;10.20;;
2710;SDS011;20721;47.402;8.550;2023-09-08T12:28:30;10.67;;;10.67;;
2710;SDS011;20721;47.402;8.550;2023-09-08T12:30:31;10.73;;;10.73;;
2710;SDS011;20721;47.402;8.550;2023-09-08T12:32:30;10.48;;;10.48;;
2710;SDS011;20721;47.402;8.550;2023-09-08T12:34:29;9.39;;;9.39;;
2710;SDS011;20721;47.402;8.550;2023-09-08T12:36:29;11.06;;;11.06;;
2710;SDS011;20721;47.402;8.550;2023-09-08T12:38:30;10.39;;;10.39;;